sensor_id;sensor_type;location;lat;lon;timestamp;pressure;altitude;pressure_sealevel;temperature;humidity
59272;BME280;45043;51.068;7.026;2024-02-04T00:00:19;101283.50;;;5.92;86.13
59272;BME280;45043;51.068;7.026;2024-02-04T00:03:20;101275.72;;;5.90;86.31
59272;BME280;45043;51.068;7.026;2024-02-04T00:06:22;101270.16;;;5.93;86.21
59272;BME280;45043;51.068;7.026;2024-02-04T00:09:22;101279.88;;;5.93;85.97
59272;BME280;45043;51.068;7.026;2024-02-04T00:12:23;101292.50;;;5.89;85.77
59272;BME280;45043;51.068;7.026;2024-02-04T00:15:24;101280.59;;;5.85;85.85
59272;BME280;45043;51.068;7.026;2024-02-04T00:18:25;101288.66;;;5.83;85.99
59272;BME280;45043;51.068;7.026;2024-02-04T00:21:26;101287.16;;;5.81;86.01
59272;BME280;45043;51.068;7.026;2024-02-04T00:24:27;101269.50;;;5.81;85.96
59272;BME280;45043;51.068;7.026;2024-02-04T00:27:28;101266.22;;;5.79;85.56
59272;BME280;45043;51.068;7.026;2024-02-04T00:30:28;101277.56;;;5.80;86.35
59272;BME280;45043;51.068;7.026;2024-02-04T00:33:29;101267.84;;;5.80;86.35
59272;BME280;45043;51.068;7.026;2024-02-04T00:36:29;101271.31;;;5.81;86.54
59272;BME280;45043;51.068;7.026;2024-02-04T00:39:30;101261.47;;;5.83;86.82
59272;BME280;45043;51.068;7.026;2024-02-04T00:42:30;101266.50;;;5.76;86.85
59272;BME280;45043;51.068;7.026;2024-02-04T00:45:31;101261.50;;;5.73;87.08
59272;BME280;45043;51.068;7.026;2024-02-04T00:48:32;101259.31;;;5.69;87.19
59272;BME280;45043;51.068;7.026;2024-02-04T00:51:32;101260.13;;;5.69;87.59
59272;BME280;45043;51.068;7.026;2024-02-04T00:54:33;101261.78;;;5.70;87.83
59272;BME280;45043;51.068;7.026;2024-02-04T00:57:34;101264.03;;;5.65;88.04
59272;BME280;45043;51.068;7.026;2024-02-04T01:00:35;101255.72;;;5.60;88.28
59272;BME280;45043;51.068;7.026;2024-02-04T01:03:36;101254.06;;;5.59;88.68
59272;BME280;45043;51.068;7.026;2024-02-04T01:06:37;101257.69;;;5.58;88.89
59272;BME280;45043;51.068;7.026;2024-02-04T01:09:38;101263.94;;;5.57;88.88
59272;BME280;45043;51.068;7.026;2024-02-04T01:12:38;101259.06;;;5.52;89.11
59272;BME280;45043;51.068;7.026;2024-02-04T01:15:39;101263.53;;;5.52;89.23
59272;BME280;45043;51.068;7.026;2024-02-04T01:18:39;101271.44;;;5.52;89.80
59272;BME280;45043;51.068;7.026;2024-02-04T01:21:40;101266.31;;;5.50;89.74
59272;BME280;45043;51.068;7.026;2024-02-04T01:24:41;101276.69;;;5.52;89.87
59272;BME280;45043;51.068;7.026;2024-02-04T01:27:41;101277.69;;;5.51;90.15
59272;BME280;45043;51.068;7.026;2024-02-04T01:30:42;101260.22;;;5.50;90.46
59272;BME280;45043;51.068;7.026;2024-02-04T01:33:43;101271.72;;;5.49;90.92
59272;BME280;45043;51.068;7.026;2024-02-04T01:36:43;101248.81;;;5.49;90.71
59272;BME280;45043;51.068;7.026;2024-02-04T01:39:44;101266.59;;;5.47;90.78
59272;BME280;45043;51.068;7.026;2024-02-04T01:42:45;101263.97;;;5.47;91.19
59272;BME280;45043;51.068;7.026;2024-02-04T01:45:46;101264.78;;;5.48;91.37
59272;BME280;45043;51.068;7.026;2024-02-04T01:48:47;101270.75;;;5.50;91.28
59272;BME280;45043;51.068;7.026;2024-02-04T01:51:49;101274.88;;;5.52;91.33
59272;BME280;45043;51.068;7.026;2024-02-04T01:54:50;101260.88;;;5.52;91.43
59272;BME280;45043;51.068;7.026;2024-02-04T01:57:51;101247.72;;;5.52;91.54
59272;BME280;45043;51.068;7.026;2024-02-04T02:00:52;101246.72;;;5.53;91.63
59272;BME280;45043;51.068;7.026;2024-02-04T02:03:53;101250.06;;;5.55;91.64
59272;BME280;45043;51.068;7.026;2024-02-04T02:06:55;101259.06;;;5.52;91.52
59272;BME280;45043;51.068;7.026;2024-02-04T02:09:56;101254.78;;;5.51;91.65
59272;BME280;45043;51.068;7.026;2024-02-04T02:13:00;101262.69;;;5.51;92.01
59272;BME280;45043;51.068;7.026;2024-02-04T02:16:13;101262.69;;;5.51;92.47
59272;BME280;45043;51.068;7.026;2024-02-04T02:22:57;101254.09;;;5.49;92.14
59272;BME280;45043;51.068;7.026;2024-02-04T02:26:04;101252.97;;;5.52;92.19
59272;BME280;45043;51.068;7.026;2024-02-04T02:29:05;101254.50;;;5.54;92.29
59272;BME280;45043;51.068;7.026;2024-02-04T02:32:06;101237.59;;;5.57;92.30
59272;BME280;45043;51.068;7.026;2024-02-04T02:35:11;101231.16;;;5.59;92.11
59272;BME280;45043;51.068;7.026;2024-02-04T02:38:33;101259.50;;;5.57;92.35
59272;BME280;45043;51.068;7.026;2024-02-04T02:41:36;101232.69;;;5.62;92.25
59272;BME280;45043;51.068;7.026;2024-02-04T02:44:39;101245.88;;;5.62;92.48
59272;BME280;45043;51.068;7.026;2024-02-04T02:47:41;101241.28;;;5.64;92.34
59272;BME280;45043;51.068;7.026;2024-02-04T02:50:43;101242.25;;;5.63;92.24
59272;BME280;45043;51.068;7.026;2024-02-04T02:53:44;101238.34;;;5.67;92.22
59272;BME280;45043;51.068;7.026;2024-02-04T02:56:44;101251.94;;;5.72;92.03
59272;BME280;45043;51.068;7.026;2024-02-04T02:59:45;101234.44;;;5.71;92.19
59272;BME280;45043;51.068;7.026;2024-02-04T03:02:46;101240.41;;;5.73;92.14
59272;BME280;45043;51.068;7.026;2024-02-04T03:05:47;101237.94;;;5.72;92.21
59272;BME280;45043;51.068;7.026;2024-02-04T03:08:47;101245.16;;;5.70;92.46
59272;BME280;45043;51.068;7.026;2024-02-04T03:11:48;101247.78;;;5.70;92.38
59272;BME280;45043;51.068;7.026;2024-02-04T03:14:49;101237.06;;;5.71;92.28
59272;BME280;45043;51.068;7.026;2024-02-04T03:17:49;101220.59;;;5.69;92.42
59272;BME280;45043;51.068;7.026;2024-02-04T03:20:50;101224.88;;;5.70;92.68
59272;BME280;45043;51.068;7.026;2024-02-04T03:23:50;101234.44;;;5.71;92.55
59272;BME280;45043;51.068;7.026;2024-02-04T03:26:51;101225.72;;;5.71;92.62
59272;BME280;45043;51.068;7.026;2024-02-04T03:29:52;101216.16;;;5.70;92.62
59272;BME280;45043;51.068;7.026;2024-02-04T03:32:53;101224.59;;;5.73;92.73
59272;BME280;45043;51.068;7.026;2024-02-04T03:35:54;101231.53;;;5.74;92.87
59272;BME280;45043;51.068;7.026;2024-02-04T03:38:54;101224.31;;;5.76;92.82
59272;BME280;45043;51.068;7.026;2024-02-04T03:41:55;101227.59;;;5.78;92.66
59272;BME280;45043;51.068;7.026;2024-02-04T03:44:56;101217.34;;;5.75;92.57
59272;BME280;45043;51.068;7.026;2024-02-04T03:47:57;101211.84;;;5.69;92.77
59272;BME280;45043;51.068;7.026;2024-02-04T03:50:57;101227.69;;;5.69;92.94
59272;BME280;45043;51.068;7.026;2024-02-04T03:53:58;101215.88;;;5.73;92.78
59272;BME280;45043;51.068;7.026;2024-02-04T03:56:59;101219.16;;;5.75;93.12
59272;BME280;45043;51.068;7.026;2024-02-04T04:00:00;101210.28;;;5.76;92.91
59272;BME280;45043;51.068;7.026;2024-02-04T04:03:00;101212.63;;;5.79;92.90
59272;BME280;45043;51.068;7.026;2024-02-04T04:06:01;101215.13;;;5.80;92.78
59272;BME280;45043;51.068;7.026;2024-02-04T04:09:02;101214.84;;;5.83;92.72
59272;BME280;45043;51.068;7.026;2024-02-04T04:12:03;101225.91;;;5.87;92.81
59272;BME280;45043;51.068;7.026;2024-02-04T04:15:04;101247.69;;;5.89;92.48
59272;BME280;45043;51.068;7.026;2024-02-04T04:18:05;101221.72;;;5.94;92.59
59272;BME280;45043;51.068;7.026;2024-02-04T04:21:06;101244.19;;;5.98;92.15
59272;BME280;45043;51.068;7.026;2024-02-04T04:24:06;101228.88;;;6.02;92.13
59272;BME280;45043;51.068;7.026;2024-02-04T04:27:07;101217.06;;;6.06;91.82
59272;BME280;45043;51.068;7.026;2024-02-04T04:30:08;101220.38;;;6.08;91.50
59272;BME280;45043;51.068;7.026;2024-02-04T04:33:09;101226.63;;;6.07;91.42
59272;BME280;45043;51.068;7.026;2024-02-04T04:36:10;101218.56;;;6.08;91.38
59272;BME280;45043;51.068;7.026;2024-02-04T04:39:10;101230.63;;;6.11;91.22
59272;BME280;45043;51.068;7.026;2024-02-04T04:42:11;101249.09;;;6.11;90.95
59272;BME280;45043;51.068;7.026;2024-02-04T04:45:12;101256.03;;;6.12;90.83
59272;BME280;45043;51.068;7.026;2024-02-04T04:48:14;101258.53;;;6.13;90.81
59272;BME280;45043;51.068;7.026;2024-02-04T04:51:14;101268.78;;;6.17;90.20
59272;BME280;45043;51.068;7.026;2024-02-04T04:54:15;101271.25;;;6.18;90.22
59272;BME280;45043;51.068;7.026;2024-02-04T04:57:16;101250.31;;;6.17;90.06
59272;BME280;45043;51.068;7.026;2024-02-04T05:00:17;101256.41;;;6.17;90.14
59272;BME280;45043;51.068;7.026;2024-02-04T05:03:17;101231.53;;;6.20;89.94
59272;BME280;45043;51.068;7.026;2024-02-04T05:06:18;101223.47;;;6.21;89.63
59272;BME280;45043;51.068;7.026;2024-02-04T05:09:19;101218.88;;;6.23;89.30
59272;BME280;45043;51.068;7.026;2024-02-04T05:12:19;101228.19;;;6.27;89.20
59272;BME280;45043;51.068;7.026;2024-02-04T05:15:20;101218.75;;;6.25;88.92
59272;BME280;45043;51.068;7.026;2024-02-04T05:18:21;101224.16;;;6.23;89.22
59272;BME280;45043;51.068;7.026;2024-02-04T05:21:22;101230.56;;;6.21;88.89
59272;BME280;45043;51.068;7.026;2024-02-04T05:24:23;101225.31;;;6.21;89.39
59272;BME280;45043;51.068;7.026;2024-02-04T05:27:23;101233.59;;;6.26;88.67
59272;BME280;45043;51.068;7.026;2024-02-04T05:30:24;101235.41;;;6.25;88.47
59272;BME280;45043;51.068;7.026;2024-02-04T05:33:24;101207.66;;;6.21;88.26
59272;BME280;45043;51.068;7.026;2024-02-04T05:36:25;101208.03;;;6.26;88.30
59272;BME280;45043;51.068;7.026;2024-02-04T05:39:26;101210.38;;;6.29;87.64
59272;BME280;45043;51.068;7.026;2024-02-04T05:42:27;101213.00;;;6.29;87.76
59272;BME280;45043;51.068;7.026;2024-02-04T05:45:28;101225.44;;;6.55;87.50
59272;BME280;45043;51.068;7.026;2024-02-04T05:48:28;101211.78;;;6.77;86.88
59272;BME280;45043;51.068;7.026;2024-02-04T05:51:31;101211.56;;;6.89;86.25
59272;BME280;45043;51.068;7.026;2024-02-04T05:54:37;101203.94;;;6.85;85.23
59272;BME280;45043;51.068;7.026;2024-02-04T05:57:37;101204.94;;;6.84;85.40
59272;BME280;45043;51.068;7.026;2024-02-04T06:00:38;101202.28;;;6.84;84.91
59272;BME280;45043;51.068;7.026;2024-02-04T06:03:38;101190.72;;;6.85;84.77
59272;BME280;45043;51.068;7.026;2024-02-04T06:06:39;101192.06;;;6.90;84.50
59272;BME280;45043;51.068;7.026;2024-02-04T06:09:39;101157.22;;;6.86;83.58
59272;BME280;45043;51.068;7.026;2024-02-04T06:12:40;101174.06;;;6.85;84.41
59272;BME280;45043;51.068;7.026;2024-02-04T06:15:45;101186.56;;;6.83;84.00
59272;BME280;45043;51.068;7.026;2024-02-04T06:18:46;101181.59;;;6.80;83.74
59272;BME280;45043;51.068;7.026;2024-02-04T06:21:46;101175.78;;;6.76;83.84
59272;BME280;45043;51.068;7.026;2024-02-04T06:24:47;101186.56;;;6.83;83.22
59272;BME280;45043;51.068;7.026;2024-02-04T06:27:47;101189.31;;;6.91;83.50
59272;BME280;45043;51.068;7.026;2024-02-04T06:30:49;101200.69;;;6.92;83.28
59272;BME280;45043;51.068;7.026;2024-02-04T06:33:50;101193.28;;;6.77;83.21
59272;BME280;45043;51.068;7.026;2024-02-04T06:36:51;101184.31;;;6.70;82.97
59272;BME280;45043;51.068;7.026;2024-02-04T06:39:52;101173.41;;;6.65;83.42
59272;BME280;45043;51.068;7.026;2024-02-04T06:42:53;101179.28;;;6.59;83.30
59272;BME280;45043;51.068;7.026;2024-02-04T06:45:53;101170.38;;;6.60;83.28
59272;BME280;45043;51.068;7.026;2024-02-04T06:48:54;101181.97;;;6.67;83.81
59272;BME280;45043;51.068;7.026;2024-02-04T06:51:55;101154.97;;;6.73;83.74
59272;BME280;45043;51.068;7.026;2024-02-04T06:54:58;101158.44;;;6.92;83.63
59272;BME280;45043;51.068;7.026;2024-02-04T06:57:58;101172.09;;;7.13;83.59
59272;BME280;45043;51.068;7.026;2024-02-04T07:00:59;101160.78;;;7.29;82.84
59272;BME280;45043;51.068;7.026;2024-02-04T07:04:00;101154.88;;;7.35;82.50
59272;BME280;45043;51.068;7.026;2024-02-04T07:07:01;101149.09;;;7.40;82.18
59272;BME280;45043;51.068;7.026;2024-02-04T07:10:02;101157.06;;;7.48;82.04
59272;BME280;45043;51.068;7.026;2024-02-04T07:13:03;101154.94;;;7.51;81.55
59272;BME280;45043;51.068;7.026;2024-02-04T07:16:03;101149.63;;;7.51;81.38
59272;BME280;45043;51.068;7.026;2024-02-04T07:19:04;101147.81;;;7.52;81.14
59272;BME280;45043;51.068;7.026;2024-02-04T07:22:05;101141.41;;;7.63;80.96
59272;BME280;45043;51.068;7.026;2024-02-04T07:25:05;101147.53;;;7.71;80.60
59272;BME280;45043;51.068;7.026;2024-02-04T07:28:06;101167.75;;;7.80;80.30
59272;BME280;45043;51.068;7.026;2024-02-04T07:31:07;101158.31;;;7.86;79.76
59272;BME280;45043;51.068;7.026;2024-02-04T07:34:07;101148.56;;;7.87;79.26
59272;BME280;45043;51.068;7.026;2024-02-04T07:37:08;101146.09;;;7.85;79.54
59272;BME280;45043;51.068;7.026;2024-02-04T07:40:09;101169.72;;;7.87;78.80
59272;BME280;45043;51.068;7.026;2024-02-04T07:43:09;101162.47;;;7.89;78.76
59272;BME280;45043;51.068;7.026;2024-02-04T07:46:10;101166.13;;;7.88;78.30
59272;BME280;45043;51.068;7.026;2024-02-04T07:49:11;101173.56;;;7.84;78.37
59272;BME280;45043;51.068;7.026;2024-02-04T07:52:12;101177.03;;;7.84;78.25
59272;BME280;45043;51.068;7.026;2024-02-04T07:55:13;101171.72;;;7.84;77.94
59272;BME280;45043;51.068;7.026;2024-02-04T07:58:13;101178.03;;;7.92;77.76
59272;BME280;45043;51.068;7.026;2024-02-04T08:01:14;101164.31;;;7.96;77.50
59272;BME280;45043;51.068;7.026;2024-02-04T08:04:15;101175.41;;;8.00;77.34
59272;BME280;45043;51.068;7.026;2024-02-04T08:07:16;101152.06;;;7.95;77.42
59272;BME280;45043;51.068;7.026;2024-02-04T08:10:18;101170.75;;;7.94;77.39
59272;BME280;45043;51.068;7.026;2024-02-04T08:13:18;101180.69;;;7.92;76.95
59272;BME280;45043;51.068;7.026;2024-02-04T08:16:19;101166.94;;;7.88;77.39
59272;BME280;45043;51.068;7.026;2024-02-04T08:19:20;101176.34;;;7.82;77.53
59272;BME280;45043;51.068;7.026;2024-02-04T08:22:21;101177.84;;;7.85;77.32
59272;BME280;45043;51.068;7.026;2024-02-04T08:25:22;101161.13;;;7.76;77.08
59272;BME280;45043;51.068;7.026;2024-02-04T08:28:22;101178.13;;;7.66;77.49
59272;BME280;45043;51.068;7.026;2024-02-04T08:31:24;101187.47;;;7.52;77.99
59272;BME280;45043;51.068;7.026;2024-02-04T08:34:25;101176.53;;;7.39;78.26
59272;BME280;45043;51.068;7.026;2024-02-04T08:37:26;101191.81;;;7.27;78.67
59272;BME280;45043;51.068;7.026;2024-02-04T08:40:27;101193.25;;;7.13;79.00
59272;BME280;45043;51.068;7.026;2024-02-04T08:43:28;101198.06;;;6.92;79.90
59272;BME280;45043;51.068;7.026;2024-02-04T08:46:29;101184.03;;;6.73;80.68
59272;BME280;45043;51.068;7.026;2024-02-04T08:49:30;101178.81;;;6.63;81.08
59272;BME280;45043;51.068;7.026;2024-02-04T08:52:30;101198.34;;;6.53;81.91
59272;BME280;45043;51.068;7.026;2024-02-04T08:55:31;101186.16;;;6.52;82.41
59272;BME280;45043;51.068;7.026;2024-02-04T08:58:31;101176.88;;;6.48;82.73
59272;BME280;45043;51.068;7.026;2024-02-04T09:01:32;101170.78;;;6.47;82.86
59272;BME280;45043;51.068;7.026;2024-02-04T09:04:33;101163.38;;;6.51;83.21
59272;BME280;45043;51.068;7.026;2024-02-04T09:07:40;101184.09;;;6.46;83.39
59272;BME280;45043;51.068;7.026;2024-02-04T09:10:41;101191.00;;;6.38;83.55
59272;BME280;45043;51.068;7.026;2024-02-04T09:13:42;101170.41;;;6.42;83.89
59272;BME280;45043;51.068;7.026;2024-02-04T09:16:42;101160.28;;;6.37;84.29
59272;BME280;45043;51.068;7.026;2024-02-04T09:19:44;101201.78;;;6.27;84.40
59272;BME280;45043;51.068;7.026;2024-02-04T09:22:45;101168.16;;;6.29;85.00
59272;BME280;45043;51.068;7.026;2024-02-04T09:25:45;101161.88;;;6.30;85.33
59272;BME280;45043;51.068;7.026;2024-02-04T09:28:46;101176.75;;;6.31;85.58
59272;BME280;45043;51.068;7.026;2024-02-04T09:31:47;101175.41;;;6.27;85.75
59272;BME280;45043;51.068;7.026;2024-02-04T09:34:50;101193.19;;;6.25;85.86
59272;BME280;45043;51.068;7.026;2024-02-04T09:37:53;101198.16;;;6.28;86.25
59272;BME280;45043;51.068;7.026;2024-02-04T09:40:54;101201.47;;;6.30;86.22
59272;BME280;45043;51.068;7.026;2024-02-04T09:43:55;101182.84;;;6.32;86.47
59272;BME280;45043;51.068;7.026;2024-02-04T09:46:56;101199.50;;;6.32;86.29
59272;BME280;45043;51.068;7.026;2024-02-04T09:49:59;101223.09;;;6.34;86.64
59272;BME280;45043;51.068;7.026;2024-02-04T09:53:00;101195.88;;;6.33;86.66
59272;BME280;45043;51.068;7.026;2024-02-04T09:56:03;101219.81;;;6.32;86.86
59272;BME280;45043;51.068;7.026;2024-02-04T09:59:06;101204.78;;;6.32;86.64
59272;BME280;45043;51.068;7.026;2024-02-04T10:02:08;101213.06;;;6.37;86.82
59272;BME280;45043;51.068;7.026;2024-02-04T10:05:08;101196.94;;;6.41;86.60
59272;BME280;45043;51.068;7.026;2024-02-04T10:08:11;101209.84;;;6.44;86.21
59272;BME280;45043;51.068;7.026;2024-02-04T10:11:11;101170.91;;;6.46;86.18
59272;BME280;45043;51.068;7.026;2024-02-04T10:14:12;101171.44;;;6.49;86.12
59272;BME280;45043;51.068;7.026;2024-02-04T10:17:15;101187.16;;;6.51;85.63
59272;BME280;45043;51.068;7.026;2024-02-04T10:20:16;101170.31;;;6.52;85.79
59272;BME280;45043;51.068;7.026;2024-02-04T10:23:17;101164.03;;;6.53;85.27
59272;BME280;45043;51.068;7.026;2024-02-04T10:26:18;101181.25;;;6.57;85.47
59272;BME280;45043;51.068;7.026;2024-02-04T10:29:24;101191.88;;;6.65;85.17
59272;BME280;45043;51.068;7.026;2024-02-04T10:32:25;101176.56;;;6.69;85.07
59272;BME280;45043;51.068;7.026;2024-02-04T10:35:26;101173.41;;;6.65;84.96
59272;BME280;45043;51.068;7.026;2024-02-04T10:38:27;101186.81;;;6.72;84.84
59272;BME280;45043;51.068;7.026;2024-02-04T10:41:29;101207.47;;;6.76;84.74
59272;BME280;45043;51.068;7.026;2024-02-04T10:44:35;101168.78;;;6.67;84.42
59272;BME280;45043;51.068;7.026;2024-02-04T10:47:39;101181.97;;;6.67;84.50
59272;BME280;45043;51.068;7.026;2024-02-04T10:50:41;101175.22;;;6.65;84.49
59272;BME280;45043;51.068;7.026;2024-02-04T10:53:44;101168.41;;;6.62;84.02
59272;BME280;45043;51.068;7.026;2024-02-04T10:56:46;101179.50;;;6.66;84.10
59272;BME280;45043;51.068;7.026;2024-02-04T10:59:51;101169.78;;;6.66;84.01
59272;BME280;45043;51.068;7.026;2024-02-04T11:02:53;101189.06;;;6.67;83.69
59272;BME280;45043;51.068;7.026;2024-02-04T11:05:54;101171.94;;;6.71;83.48
59272;BME280;45043;51.068;7.026;2024-02-04T11:08:55;101186.31;;;6.68;83.39
59272;BME280;45043;51.068;7.026;2024-02-04T11:11:58;101165.00;;;6.70;83.40
59272;BME280;45043;51.068;7.026;2024-02-04T11:15:03;101172.78;;;6.71;83.29
59272;BME280;45043;51.068;7.026;2024-02-04T11:18:30;101171.81;;;6.72;83.26
59272;BME280;45043;51.068;7.026;2024-02-04T11:22:03;101154.44;;;6.70;83.43
59272;BME280;45043;51.068;7.026;2024-02-04T11:28:25;101158.00;;;6.60;83.59
59272;BME280;45043;51.068;7.026;2024-02-04T11:31:28;101163.75;;;6.56;84.03
59272;BME280;45043;51.068;7.026;2024-02-04T11:34:29;101146.41;;;6.53;84.46
59272;BME280;45043;51.068;7.026;2024-02-04T11:37:30;101144.91;;;6.51;84.54
59272;BME280;45043;51.068;7.026;2024-02-04T11:40:37;101155.47;;;6.51;84.92
59272;BME280;45043;51.068;7.026;2024-02-04T11:43:38;101127.41;;;6.50;84.93
59272;BME280;45043;51.068;7.026;2024-02-04T11:46:46;101123.50;;;6.54;85.34
59272;BME280;45043;51.068;7.026;2024-02-04T11:49:54;101159.00;;;6.59;85.43
59272;BME280;45043;51.068;7.026;2024-02-04T11:53:03;101145.66;;;6.61;85.12
59272;BME280;45043;51.068;7.026;2024-02-04T11:56:06;101128.13;;;6.60;85.48
59272;BME280;45043;51.068;7.026;2024-02-04T11:59:07;101120.22;;;6.60;85.42
59272;BME280;45043;51.068;7.026;2024-02-04T12:02:08;101110.81;;;6.57;85.53
59272;BME280;45043;51.068;7.026;2024-02-04T12:05:09;101124.53;;;6.61;85.65
59272;BME280;45043;51.068;7.026;2024-02-04T12:08:11;101100.09;;;6.59;85.51
59272;BME280;45043;51.068;7.026;2024-02-04T12:11:12;101137.72;;;6.61;85.34
59272;BME280;45043;51.068;7.026;2024-02-04T12:14:13;101096.78;;;6.57;85.29
59272;BME280;45043;51.068;7.026;2024-02-04T12:17:14;101126.78;;;6.56;85.14
59272;BME280;45043;51.068;7.026;2024-02-04T12:20:16;101082.91;;;6.55;85.24
59272;BME280;45043;51.068;7.026;2024-02-04T12:23:17;101102.06;;;6.57;85.40
59272;BME280;45043;51.068;7.026;2024-02-04T12:26:22;101095.63;;;6.59;85.50
59272;BME280;45043;51.068;7.026;2024-02-04T12:29:23;101106.66;;;6.55;85.31
59272;BME280;45043;51.068;7.026;2024-02-04T12:32:24;101120.84;;;6.54;85.63
59272;BME280;45043;51.068;7.026;2024-02-04T12:35:28;101093.47;;;6.55;85.63
59272;BME280;45043;51.068;7.026;2024-02-04T12:38:29;101101.53;;;6.53;85.92
59272;BME280;45043;51.068;7.026;2024-02-04T12:41:30;101108.59;;;6.53;85.86
59272;BME280;45043;51.068;7.026;2024-02-04T12:44:31;101082.38;;;6.51;85.91
59272;BME280;45043;51.068;7.026;2024-02-04T12:47:32;101097.00;;;6.46;86.52
59272;BME280;45043;51.068;7.026;2024-02-04T12:50:32;101101.47;;;6.45;86.71
59272;BME280;45043;51.068;7.026;2024-02-04T12:53:37;101079.38;;;6.46;86.88
59272;BME280;45043;51.068;7.026;2024-02-04T12:59:44;101081.34;;;6.44;87.16
59272;BME280;45043;51.068;7.026;2024-02-04T13:02:50;101070.94;;;6.43;87.68
59272;BME280;45043;51.068;7.026;2024-02-04T13:05:51;101110.03;;;6.39;87.55
59272;BME280;45043;51.068;7.026;2024-02-04T13:08:55;101069.22;;;6.33;87.72
59272;BME280;45043;51.068;7.026;2024-02-04T13:12:03;101063.59;;;6.28;87.98
59272;BME280;45043;51.068;7.026;2024-02-04T13:15:04;101064.88;;;6.24;88.46
59272;BME280;45043;51.068;7.026;2024-02-04T13:18:06;101076.03;;;6.18;88.79
59272;BME280;45043;51.068;7.026;2024-02-04T13:21:06;101083.94;;;6.18;89.11
59272;BME280;45043;51.068;7.026;2024-02-04T13:24:07;101068.72;;;6.12;89.56
59272;BME280;45043;51.068;7.026;2024-02-04T13:27:07;101050.66;;;6.17;89.44
59272;BME280;45043;51.068;7.026;2024-02-04T13:30:08;101055.97;;;6.25;89.43
59272;BME280;45043;51.068;7.026;2024-02-04T13:33:13;101056.97;;;6.24;89.25
59272;BME280;45043;51.068;7.026;2024-02-04T13:36:14;101046.09;;;6.27;89.57
59272;BME280;45043;51.068;7.026;2024-02-04T13:39:14;101052.03;;;6.29;89.18
59272;BME280;45043;51.068;7.026;2024-02-04T13:42:18;101031.94;;;6.28;89.09
59272;BME280;45043;51.068;7.026;2024-02-04T13:45:19;101038.75;;;6.39;88.86
59272;BME280;45043;51.068;7.026;2024-02-04T13:48:19;101069.13;;;6.43;88.81
59272;BME280;45043;51.068;7.026;2024-02-04T13:51:22;101086.78;;;6.43;88.52
59272;BME280;45043;51.068;7.026;2024-02-04T13:54:23;101105.25;;;6.43;88.26
59272;BME280;45043;51.068;7.026;2024-02-04T13:57:23;101054.28;;;6.42;87.83
59272;BME280;45043;51.068;7.026;2024-02-04T14:00:24;101082.34;;;6.43;87.46
59272;BME280;45043;51.068;7.026;2024-02-04T14:03:24;101065.69;;;6.43;87.68
59272;BME280;45043;51.068;7.026;2024-02-04T14:06:25;101081.88;;;6.48;87.22
59272;BME280;45043;51.068;7.026;2024-02-04T14:09:27;101082.22;;;6.53;87.11
59272;BME280;45043;51.068;7.026;2024-02-04T14:12:27;101070.69;;;6.54;87.06
59272;BME280;45043;51.068;7.026;2024-02-04T14:15:30;101085.72;;;6.53;86.58
59272;BME280;45043;51.068;7.026;2024-02-04T14:18:31;101072.81;;;6.50;86.48
59272;BME280;45043;51.068;7.026;2024-02-04T14:21:32;101059.09;;;6.47;85.94
59272;BME280;45043;51.068;7.026;2024-02-04T14:24:32;101105.91;;;6.45;86.22
59272;BME280;45043;51.068;7.026;2024-02-04T14:27:34;101049.66;;;6.44;85.99
59272;BME280;45043;51.068;7.026;2024-02-04T14:30:34;101034.97;;;6.42;86.08
59272;BME280;45043;51.068;7.026;2024-02-04T14:33:35;101047.72;;;6.46;85.58
59272;BME280;45043;51.068;7.026;2024-02-04T14:36:41;101081.88;;;6.48;85.48
59272;BME280;45043;51.068;7.026;2024-02-04T14:39:42;101032.72;;;6.47;85.26
59272;BME280;45043;51.068;7.026;2024-02-04T14:42:44;101047.72;;;6.46;85.24
59272;BME280;45043;51.068;7.026;2024-02-04T14:45:49;101066.19;;;6.46;85.02
59272;BME280;45043;51.068;7.026;2024-02-04T14:48:50;101065.03;;;6.49;84.97
59272;BME280;45043;51.068;7.026;2024-02-04T14:51:52;101034.19;;;6.49;84.81
59272;BME280;45043;51.068;7.026;2024-02-04T14:55:00;101054.16;;;6.52;84.68
59272;BME280;45043;51.068;7.026;2024-02-04T14:58:01;101045.44;;;6.51;84.58
59272;BME280;45043;51.068;7.026;2024-02-04T15:01:03;101079.28;;;6.56;84.56
59272;BME280;45043;51.068;7.026;2024-02-04T15:04:06;101081.44;;;6.60;84.08
59272;BME280;45043;51.068;7.026;2024-02-04T15:07:10;101049.63;;;6.62;83.91
59272;BME280;45043;51.068;7.026;2024-02-04T15:10:14;101045.16;;;6.62;83.82
59272;BME280;45043;51.068;7.026;2024-02-04T15:13:16;101059.41;;;6.70;83.79
59272;BME280;45043;51.068;7.026;2024-02-04T15:16:17;101050.66;;;6.69;83.36
59272;BME280;45043;51.068;7.026;2024-02-04T15:19:18;101092.91;;;6.69;83.38
59272;BME280;45043;51.068;7.026;2024-02-04T15:22:20;101049.97;;;6.67;83.13
59272;BME280;45043;51.068;7.026;2024-02-04T15:25:26;101040.41;;;6.66;83.22
59272;BME280;45043;51.068;7.026;2024-02-04T15:28:30;101036.75;;;6.67;83.21
59272;BME280;45043;51.068;7.026;2024-02-04T15:31:33;101052.91;;;6.64;83.10
59272;BME280;45043;51.068;7.026;2024-02-04T15:34:34;101057.53;;;6.62;83.09
59272;BME280;45043;51.068;7.026;2024-02-04T15:37:37;101061.00;;;6.62;83.11
59272;BME280;45043;51.068;7.026;2024-02-04T15:40:39;101046.69;;;6.65;82.95
59272;BME280;45043;51.068;7.026;2024-02-04T15:43:40;101065.28;;;6.63;83.26
59272;BME280;45043;51.068;7.026;2024-02-04T15:46:42;101043.34;;;6.63;83.42
59272;BME280;45043;51.068;7.026;2024-02-04T15:49:49;101041.69;;;6.62;83.24
59272;BME280;45043;51.068;7.026;2024-02-04T15:52:50;101063.94;;;6.59;83.25
59272;BME280;45043;51.068;7.026;2024-02-04T15:55:52;101037.72;;;6.58;83.26
59272;BME280;45043;51.068;7.026;2024-02-04T15:59:08;101039.38;;;6.59;83.33
59272;BME280;45043;51.068;7.026;2024-02-04T16:02:10;101051.91;;;6.57;83.47
59272;BME280;45043;51.068;7.026;2024-02-04T16:05:13;101028.16;;;6.57;83.27
59272;BME280;45043;51.068;7.026;2024-02-04T16:08:15;101016.44;;;6.59;83.36
59272;BME280;45043;51.068;7.026;2024-02-04T16:11:19;101039.53;;;6.57;83.43